sensor_id;sensor_type;location;lat;lon;timestamp;pressure;altitude;pressure_sealevel;temperature;humidity
38786;BME280;24535;45.508;12.252;2023-06-22T00:01:00;101784.91;;;29.32;56.80
38786;BME280;24535;45.508;12.252;2023-06-22T00:03:26;101778.63;;;29.31;56.57
38786;BME280;24535;45.508;12.252;2023-06-22T00:05:52;101784.06;;;29.31;56.45
38786;BME280;24535;45.508;12.252;2023-06-22T00:08:18;101779.47;;;29.32;56.00
38786;BME280;24535;45.508;12.252;2023-06-22T00:10:44;101773.00;;;29.33;56.12
38786;BME280;24535;45.508;12.252;2023-06-22T00:13:10;101776.75;;;29.32;56.22
38786;BME280;24535;45.508;12.252;2023-06-22T00:15:36;101774.25;;;29.30;56.34
38786;BME280;24535;45.508;12.252;2023-06-22T00:18:02;101776.31;;;29.28;56.27
38786;BME280;24535;45.508;12.252;2023-06-22T00:20:27;101780.91;;;29.28;56.22
38786;BME280;24535;45.508;12.252;2023-06-22T00:22:56;101778.81;;;29.23;56.67
38786;BME280;24535;45.508;12.252;2023-06-22T00:25:22;101781.72;;;29.22;56.88
38786;BME280;24535;45.508;12.252;2023-06-22T00:27:48;101775.66;;;29.20;56.01
38786;BME280;24535;45.508;12.252;2023-06-22T00:30:13;101779.63;;;29.17;55.78
38786;BME280;24535;45.508;12.252;2023-06-22T00:32:39;101774.59;;;29.14;55.53
38786;BME280;24535;45.508;12.252;2023-06-22T00:35:04;101784.16;;;29.10;54.73
38786;BME280;24535;45.508;12.252;2023-06-22T00:37:29;101775.56;;;29.06;54.76
38786;BME280;24535;45.508;12.252;2023-06-22T00:39:55;101780.78;;;29.01;54.77
38786;BME280;24535;45.508;12.252;2023-06-22T00:42:21;101774.91;;;28.98;55.11
38786;BME280;24535;45.508;12.252;2023-06-22T00:44:46;101776.09;;;28.95;54.68
38786;BME280;24535;45.508;12.252;2023-06-22T00:47:12;101774.63;;;28.93;54.67
38786;BME280;24535;45.508;12.252;2023-06-22T00:49:39;101777.91;;;28.88;54.83
38786;BME280;24535;45.508;12.252;2023-06-22T00:52:05;101771.03;;;28.86;55.00
38786;BME280;24535;45.508;12.252;2023-06-22T00:54:34;101768.50;;;28.84;54.68
38786;BME280;24535;45.508;12.252;2023-06-22T00:57:01;101768.72;;;28.82;54.77
38786;BME280;24535;45.508;12.252;2023-06-22T00:59:26;101768.91;;;28.81;54.94
38786;BME280;24535;45.508;12.252;2023-06-22T01:01:52;101763.50;;;28.81;56.16
38786;BME280;24535;45.508;12.252;2023-06-22T01:04:17;101762.66;;;28.80;56.01
38786;BME280;24535;45.508;12.252;2023-06-22T01:07:01;101764.50;;;28.80;55.97
38786;BME280;24535;45.508;12.252;2023-06-22T01:09:31;101767.44;;;28.78;55.59
38786;BME280;24535;45.508;12.252;2023-06-22T01:12:09;101755.75;;;28.78;55.41
38786;BME280;24535;45.508;12.252;2023-06-22T01:17:01;101756.78;;;28.77;54.72
38786;BME280;24535;45.508;12.252;2023-06-22T01:22:02;101746.31;;;28.74;54.66
38786;BME280;24535;45.508;12.252;2023-06-22T01:30:10;101750.09;;;28.73;54.68
38786;BME280;24535;45.508;12.252;2023-06-22T01:32:37;101738.56;;;28.71;54.82
38786;BME280;24535;45.508;12.252;2023-06-22T01:35:04;101735.03;;;28.70;54.82
38786;BME280;24535;45.508;12.252;2023-06-22T01:37:30;101737.75;;;28.70;55.17
38786;BME280;24535;45.508;12.252;2023-06-22T01:39:57;101734.59;;;28.67;55.45
38786;BME280;24535;45.508;12.252;2023-06-22T01:42:23;101734.78;;;28.65;55.84
38786;BME280;24535;45.508;12.252;2023-06-22T01:44:49;101727.88;;;28.63;55.45
38786;BME280;24535;45.508;12.252;2023-06-22T01:47:15;101729.75;;;28.62;55.64
38786;BME280;24535;45.508;12.252;2023-06-22T01:49:41;101727.03;;;28.62;55.40
38786;BME280;24535;45.508;12.252;2023-06-22T01:52:07;101728.09;;;28.61;55.61
38786;BME280;24535;45.508;12.252;2023-06-22T01:54:33;101724.53;;;28.61;55.79
38786;BME280;24535;45.508;12.252;2023-06-22T01:56:58;101725.38;;;28.61;56.21
38786;BME280;24535;45.508;12.252;2023-06-22T01:59:34;101730.78;;;28.61;55.89
38786;BME280;24535;45.508;12.252;2023-06-22T02:02:04;101736.41;;;28.59;55.45
38786;BME280;24535;45.508;12.252;2023-06-22T02:07:07;101735.56;;;28.59;55.96
38786;BME280;24535;45.508;12.252;2023-06-22T02:09:34;101734.09;;;28.56;55.47
38786;BME280;24535;45.508;12.252;2023-06-22T02:12:00;101735.13;;;28.55;55.90
38786;BME280;24535;45.508;12.252;2023-06-22T02:14:27;101739.72;;;28.55;56.06
38786;BME280;24535;45.508;12.252;2023-06-22T02:16:53;101739.72;;;28.55;56.46
38786;BME280;24535;45.508;12.252;2023-06-22T02:19:22;101737.66;;;28.57;56.21
38786;BME280;24535;45.508;12.252;2023-06-22T02:21:48;101729.25;;;28.52;55.38
38786;BME280;24535;45.508;12.252;2023-06-22T02:24:13;101735.09;;;28.49;55.45
38786;BME280;24535;45.508;12.252;2023-06-22T02:26:38;101724.63;;;28.46;55.27
38786;BME280;24535;45.508;12.252;2023-06-22T02:29:07;101733.97;;;28.43;55.33
38786;BME280;24535;45.508;12.252;2023-06-22T02:31:32;101732.53;;;28.41;54.94
38786;BME280;24535;45.508;12.252;2023-06-22T02:33:58;101740.19;;;28.37;55.46
38786;BME280;24535;45.508;12.252;2023-06-22T02:36:24;101751.41;;;28.34;55.31
38786;BME280;24535;45.508;12.252;2023-06-22T02:38:50;101751.59;;;28.32;55.00
38786;BME280;24535;45.508;12.252;2023-06-22T02:41:15;101749.72;;;28.33;55.38
38786;BME280;24535;45.508;12.252;2023-06-22T02:43:47;101754.31;;;28.32;54.57
38786;BME280;24535;45.508;12.252;2023-06-22T02:46:13;101755.31;;;28.31;55.03
38786;BME280;24535;45.508;12.252;2023-06-22T02:48:41;101748.44;;;28.29;56.11
38786;BME280;24535;45.508;12.252;2023-06-22T02:51:06;101758.03;;;28.31;56.35
38786;BME280;24535;45.508;12.252;2023-06-22T02:53:32;101757.03;;;28.32;56.25
38786;BME280;24535;45.508;12.252;2023-06-22T02:58:52;101763.66;;;28.30;54.73
38786;BME280;24535;45.508;12.252;2023-06-22T03:01:17;101750.69;;;28.25;55.03
38786;BME280;24535;45.508;12.252;2023-06-22T03:03:49;101757.16;;;28.24;56.00
38786;BME280;24535;45.508;12.252;2023-06-22T03:06:14;101765.28;;;28.24;55.65
38786;BME280;24535;45.508;12.252;2023-06-22T03:08:40;101760.69;;;28.25;56.02
38786;BME280;24535;45.508;12.252;2023-06-22T03:11:06;101766.28;;;28.23;55.94
38786;BME280;24535;45.508;12.252;2023-06-22T03:13:32;101764.44;;;28.24;55.78
38786;BME280;24535;45.508;12.252;2023-06-22T03:15:58;101769.66;;;28.25;55.16
38786;BME280;24535;45.508;12.252;2023-06-22T03:18:23;101773.41;;;28.24;55.16
38786;BME280;24535;45.508;12.252;2023-06-22T03:20:49;101761.91;;;28.22;55.16
38786;BME280;24535;45.508;12.252;2023-06-22T03:23:14;101759.22;;;28.22;55.94
38786;BME280;24535;45.508;12.252;2023-06-22T03:25:40;101765.47;;;28.23;55.37
38786;BME280;24535;45.508;12.252;2023-06-22T03:28:05;101764.84;;;28.21;55.72
38786;BME280;24535;45.508;12.252;2023-06-22T03:30:31;101765.66;;;28.21;56.17
38786;BME280;24535;45.508;12.252;2023-06-22T03:32:56;101775.47;;;28.22;56.39
38786;BME280;24535;45.508;12.252;2023-06-22T03:35:21;101778.84;;;28.24;56.19
38786;BME280;24535;45.508;12.252;2023-06-22T03:43:05;101765.22;;;28.18;55.19
38786;BME280;24535;45.508;12.252;2023-06-22T03:45:31;101766.44;;;28.15;55.17
38786;BME280;24535;45.508;12.252;2023-06-22T03:47:56;101757.88;;;28.12;55.06
38786;BME280;24535;45.508;12.252;2023-06-22T03:50:21;101762.63;;;28.09;55.06
38786;BME280;24535;45.508;12.252;2023-06-22T03:52:47;101759.47;;;28.06;55.00
38786;BME280;24535;45.508;12.252;2023-06-22T03:55:12;101750.72;;;28.04;55.46
38786;BME280;24535;45.508;12.252;2023-06-22T03:57:37;101751.91;;;28.01;55.50
38786;BME280;24535;45.508;12.252;2023-06-22T04:00:03;101759.22;;;28.01;56.19
38786;BME280;24535;45.508;12.252;2023-06-22T04:02:31;101759.84;;;28.03;56.43
38786;BME280;24535;45.508;12.252;2023-06-22T04:04:56;101755.09;;;28.05;56.38
38786;BME280;24535;45.508;12.252;2023-06-22T04:07:21;101759.25;;;28.07;56.10
38786;BME280;24535;45.508;12.252;2023-06-22T04:09:46;101756.38;;;28.09;55.86
38786;BME280;24535;45.508;12.252;2023-06-22T04:12:12;101756.00;;;28.12;56.17
38786;BME280;24535;45.508;12.252;2023-06-22T04:14:37;101745.78;;;28.14;56.52
38786;BME280;24535;45.508;12.252;2023-06-22T04:17:02;101746.25;;;28.18;56.39
38786;BME280;24535;45.508;12.252;2023-06-22T04:19:28;101750.44;;;28.20;56.00
38786;BME280;24535;45.508;12.252;2023-06-22T04:21:53;101754.00;;;28.21;55.61
38786;BME280;24535;45.508;12.252;2023-06-22T04:24:18;101752.94;;;28.22;55.79
38786;BME280;24535;45.508;12.252;2023-06-22T04:26:44;101757.53;;;28.21;55.33
38786;BME280;24535;45.508;12.252;2023-06-22T04:29:10;101749.63;;;28.20;55.18
38786;BME280;24535;45.508;12.252;2023-06-22T04:31:36;101759.59;;;28.19;56.01
38786;BME280;24535;45.508;12.252;2023-06-22T04:34:02;101753.78;;;28.22;56.21
38786;BME280;24535;45.508;12.252;2023-06-22T04:36:40;101759.88;;;28.24;56.07
38786;BME280;24535;45.508;12.252;2023-06-22T04:39:06;101761.16;;;28.28;56.38
38786;BME280;24535;45.508;12.252;2023-06-22T04:41:32;101757.03;;;28.32;55.77
38786;BME280;24535;45.508;12.252;2023-06-22T04:44:07;101750.56;;;28.33;55.31
38786;BME280;24535;45.508;12.252;2023-06-22T04:46:32;101755.97;;;28.33;55.26
38786;BME280;24535;45.508;12.252;2023-06-22T04:49:04;101751.41;;;28.34;55.41
38786;BME280;24535;45.508;12.252;2023-06-22T04:51:31;101745.13;;;28.33;55.43
38786;BME280;24535;45.508;12.252;2023-06-22T04:53:57;101750.75;;;28.32;55.64
38786;BME280;24535;45.508;12.252;2023-06-22T04:56:25;101743.66;;;28.31;55.63
38786;BME280;24535;45.508;12.252;2023-06-22T04:58:53;101747.00;;;28.33;55.83
38786;BME280;24535;45.508;12.252;2023-06-22T05:01:26;101749.38;;;28.36;56.01
38786;BME280;24535;45.508;12.252;2023-06-22T05:03:51;101755.22;;;28.40;56.09
38786;BME280;24535;45.508;12.252;2023-06-22T05:06:26;101766.72;;;28.42;56.15
38786;BME280;24535;45.508;12.252;2023-06-22T05:08:55;101768.00;;;28.46;56.11
38786;BME280;24535;45.508;12.252;2023-06-22T05:11:23;101767.63;;;28.49;56.35
38786;BME280;24535;45.508;12.252;2023-06-22T05:13:48;101753.03;;;28.50;56.19
38786;BME280;24535;45.508;12.252;2023-06-22T05:16:13;101757.03;;;28.54;56.15
38786;BME280;24535;45.508;12.252;2023-06-22T05:18:39;101764.34;;;28.60;56.39
38786;BME280;24535;45.508;12.252;2023-06-22T05:21:04;101761.06;;;28.65;56.19
38786;BME280;24535;45.508;12.252;2023-06-22T05:23:29;101750.47;;;28.70;56.62
38786;BME280;24535;45.508;12.252;2023-06-22T05:25:54;101750.53;;;28.76;56.18
38786;BME280;24535;45.508;12.252;2023-06-22T05:28:22;101751.81;;;28.80;56.18
38786;BME280;24535;45.508;12.252;2023-06-22T05:30:48;101743.91;;;28.86;56.34
38786;BME280;24535;45.508;12.252;2023-06-22T05:33:13;101761.47;;;28.90;56.16
38786;BME280;24535;45.508;12.252;2023-06-22T05:35:44;101757.31;;;28.94;56.17
38786;BME280;24535;45.508;12.252;2023-06-22T05:38:10;101764.06;;;28.98;55.79
38786;BME280;24535;45.508;12.252;2023-06-22T05:40:35;101761.56;;;29.03;56.17
38786;BME280;24535;45.508;12.252;2023-06-22T05:43:00;101760.97;;;29.07;56.32
38786;BME280;24535;45.508;12.252;2023-06-22T05:48:19;101763.97;;;29.19;56.11
38786;BME280;24535;45.508;12.252;2023-06-22T05:53:20;101772.59;;;29.29;55.80
38786;BME280;24535;45.508;12.252;2023-06-22T05:58:48;101771.81;;;29.42;55.58
38786;BME280;24535;45.508;12.252;2023-06-22T06:01:13;101768.47;;;29.47;55.41
38786;BME280;24535;45.508;12.252;2023-06-22T06:03:40;101768.91;;;29.50;55.46
38786;BME280;24535;45.508;12.252;2023-06-22T06:06:06;101764.75;;;29.54;55.05
38786;BME280;24535;45.508;12.252;2023-06-22T06:08:31;101764.78;;;29.61;54.89
38786;BME280;24535;45.508;12.252;2023-06-22T06:10:59;101765.03;;;29.66;54.70
38786;BME280;24535;45.508;12.252;2023-06-22T06:13:25;101760.88;;;29.70;55.10
38786;BME280;24535;45.508;12.252;2023-06-22T06:15:50;101759.44;;;29.74;54.71
38786;BME280;24535;45.508;12.252;2023-06-22T06:18:16;101760.69;;;29.78;54.61
38786;BME280;24535;45.508;12.252;2023-06-22T06:20:42;101762.97;;;29.81;55.13
38786;BME280;24535;45.508;12.252;2023-06-22T06:23:07;101759.84;;;29.85;54.93
38786;BME280;24535;45.508;12.252;2023-06-22T06:25:33;101760.28;;;29.88;54.44
38786;BME280;24535;45.508;12.252;2023-06-22T06:27:58;101754.22;;;29.93;54.13
38786;BME280;24535;45.508;12.252;2023-06-22T06:30:23;101760.09;;;29.96;54.61
38786;BME280;24535;45.508;12.252;2023-06-22T06:33:10;101757.81;;;30.00;54.02
38786;BME280;24535;45.508;12.252;2023-06-22T06:35:34;101759.72;;;30.06;54.64
38786;BME280;24535;45.508;12.252;2023-06-22T06:38:00;101762.00;;;30.09;54.14
38786;BME280;24535;45.508;12.252;2023-06-22T06:40:25;101756.81;;;30.14;53.92
38786;BME280;24535;45.508;12.252;2023-06-22T06:42:50;101756.81;;;30.21;54.03
38786;BME280;24535;45.508;12.252;2023-06-22T06:45:19;101756.84;;;30.27;53.59
38786;BME280;24535;45.508;12.252;2023-06-22T06:47:45;101760.59;;;30.33;53.49
38786;BME280;24535;45.508;12.252;2023-06-22T06:50:10;101750.97;;;30.37;53.42
38786;BME280;24535;45.508;12.252;2023-06-22T06:52:36;101756.22;;;30.39;53.43
38786;BME280;24535;45.508;12.252;2023-06-22T06:55:02;101759.34;;;30.42;52.83
38786;BME280;24535;45.508;12.252;2023-06-22T06:57:29;101763.31;;;30.46;53.24
38786;BME280;24535;45.508;12.252;2023-06-22T06:59:55;101760.41;;;30.48;52.84
38786;BME280;24535;45.508;12.252;2023-06-22T07:02:21;101751.81;;;30.51;52.79
38786;BME280;24535;45.508;12.252;2023-06-22T07:04:47;101742.59;;;30.59;52.78
38786;BME280;24535;45.508;12.252;2023-06-22T07:07:12;101741.94;;;30.70;52.81
38786;BME280;24535;45.508;12.252;2023-06-22T07:09:37;101737.78;;;30.81;52.73
38786;BME280;24535;45.508;12.252;2023-06-22T07:12:03;101736.50;;;30.90;51.78
38786;BME280;24535;45.508;12.252;2023-06-22T07:14:28;101732.72;;;30.97;51.98
38786;BME280;24535;45.508;12.252;2023-06-22T07:16:57;101734.19;;;31.00;51.97
38786;BME280;24535;45.508;12.252;2023-06-22T07:19:25;101724.56;;;31.04;51.82
38786;BME280;24535;45.508;12.252;2023-06-22T07:21:51;101731.00;;;31.10;51.50
38786;BME280;24535;45.508;12.252;2023-06-22T07:24:17;101738.75;;;31.13;51.53
38786;BME280;24535;45.508;12.252;2023-06-22T07:26:42;101732.47;;;31.12;51.07
38786;BME280;24535;45.508;12.252;2023-06-22T07:29:11;101740.41;;;31.14;51.33
38786;BME280;24535;45.508;12.252;2023-06-22T07:31:36;101736.03;;;31.13;51.03
38786;BME280;24535;45.508;12.252;2023-06-22T07:34:02;101736.22;;;31.11;50.88
38786;BME280;24535;45.508;12.252;2023-06-22T07:36:28;101738.13;;;31.11;51.41
38786;BME280;24535;45.508;12.252;2023-06-22T07:38:55;101735.63;;;31.09;51.13
38786;BME280;24535;45.508;12.252;2023-06-22T07:41:20;101730.19;;;31.09;50.97
38786;BME280;24535;45.508;12.252;2023-06-22T07:43:46;101726.81;;;31.14;51.38
38786;BME280;24535;45.508;12.252;2023-06-22T07:46:11;101727.22;;;31.24;51.20
38786;BME280;24535;45.508;12.252;2023-06-22T07:48:37;101727.78;;;31.39;51.11
38786;BME280;24535;45.508;12.252;2023-06-22T07:51:02;101726.25;;;31.57;50.97
38786;BME280;24535;45.508;12.252;2023-06-22T07:53:27;101729.50;;;31.72;51.03
38786;BME280;24535;45.508;12.252;2023-06-22T08:04:45;101744.38;;;32.64;48.88
38786;BME280;24535;45.508;12.252;2023-06-22T08:12:37;101747.66;;;32.91;47.96
38786;BME280;24535;45.508;12.252;2023-06-22T08:15:03;101749.16;;;32.94;48.05
38786;BME280;24535;45.508;12.252;2023-06-22T08:17:40;101745.94;;;32.97;47.76
38786;BME280;24535;45.508;12.252;2023-06-22T08:20:34;101739.34;;;33.05;47.47
38786;BME280;24535;45.508;12.252;2023-06-22T08:23:00;101731.94;;;33.12;47.31
38786;BME280;24535;45.508;12.252;2023-06-22T08:28:20;101728.81;;;33.45;46.76
38786;BME280;24535;45.508;12.252;2023-06-22T08:30:48;101729.81;;;33.62;46.90
38786;BME280;24535;45.508;12.252;2023-06-22T08:41:38;101724.19;;;34.29;45.32
38786;BME280;24535;45.508;12.252;2023-06-22T08:52:51;101729.56;;;34.36;45.10
38786;BME280;24535;45.508;12.252;2023-06-22T08:55:29;101733.84;;;34.32;44.91
38786;BME280;24535;45.508;12.252;2023-06-22T08:58:12;101733.13;;;34.25;45.08
38786;BME280;24535;45.508;12.252;2023-06-22T09:00:38;101731.56;;;34.17;45.00
38786;BME280;24535;45.508;12.252;2023-06-22T09:03:09;101732.16;;;34.07;45.14
38786;BME280;24535;45.508;12.252;2023-06-22T09:05:34;101735.28;;;33.92;45.04
38786;BME280;24535;45.508;12.252;2023-06-22T09:08:00;101729.16;;;33.79;44.72
38786;BME280;24535;45.508;12.252;2023-06-22T09:10:34;101735.06;;;33.64;45.46
38786;BME280;24535;45.508;12.252;2023-06-22T09:13:05;101736.09;;;33.51;45.32
38786;BME280;24535;45.508;12.252;2023-06-22T09:15:31;101729.72;;;33.39;45.41
38786;BME280;24535;45.508;12.252;2023-06-22T09:17:56;101733.78;;;33.30;45.93
38786;BME280;24535;45.508;12.252;2023-06-22T09:20:22;101725.31;;;33.19;46.37
38786;BME280;24535;45.508;12.252;2023-06-22T09:23:25;101733.69;;;33.06;45.61
38786;BME280;24535;45.508;12.252;2023-06-22T09:26:11;101739.91;;;32.95;46.05
38786;BME280;24535;45.508;12.252;2023-06-22T09:28:56;101740.84;;;32.82;46.49
38786;BME280;24535;45.508;12.252;2023-06-22T09:31:23;101730.44;;;32.72;46.67
38786;BME280;24535;45.508;12.252;2023-06-22T09:33:53;101735.13;;;32.65;46.87
38786;BME280;24535;45.508;12.252;2023-06-22T09:36:19;101737.94;;;32.59;46.77
38786;BME280;24535;45.508;12.252;2023-06-22T09:38:45;101723.25;;;32.53;46.89
38786;BME280;24535;45.508;12.252;2023-06-22T09:46:54;101736.59;;;32.43;47.53
38786;BME280;24535;45.508;12.252;2023-06-22T09:58:30;101728.66;;;32.35;47.92
38786;BME280;24535;45.508;12.252;2023-06-22T10:00:55;101727.44;;;32.31;47.81
38786;BME280;24535;45.508;12.252;2023-06-22T10:06:07;101727.72;;;32.22;48.24
38786;BME280;24535;45.508;12.252;2023-06-22T10:11:25;101735.50;;;32.19;48.28
38786;BME280;24535;45.508;12.252;2023-06-22T10:13:54;101736.34;;;32.19;48.28
38786;BME280;24535;45.508;12.252;2023-06-22T10:16:19;101732.78;;;32.19;48.04
38786;BME280;24535;45.508;12.252;2023-06-22T10:18:52;101731.72;;;32.20;48.19
38786;BME280;24535;45.508;12.252;2023-06-22T10:21:18;101724.84;;;32.17;47.94
38786;BME280;24535;45.508;12.252;2023-06-22T10:23:43;101725.03;;;32.16;48.11
38786;BME280;24535;45.508;12.252;2023-06-22T10:29:07;101731.31;;;32.16;47.68
38786;BME280;24535;45.508;12.252;2023-06-22T10:31:32;101731.78;;;32.13;47.41
38786;BME280;24535;45.508;12.252;2023-06-22T10:33:58;101730.56;;;32.09;47.57
38786;BME280;24535;45.508;12.252;2023-06-22T10:36:23;101733.72;;;32.06;47.49
38786;BME280;24535;45.508;12.252;2023-06-22T10:38:51;101740.66;;;32.02;47.38
38786;BME280;24535;45.508;12.252;2023-06-22T10:41:18;101740.03;;;32.00;47.69
38786;BME280;24535;45.508;12.252;2023-06-22T10:43:43;101732.91;;;31.99;48.00
38786;BME280;24535;45.508;12.252;2023-06-22T10:46:09;101732.31;;;31.97;47.46
38786;BME280;24535;45.508;12.252;2023-06-22T10:48:34;101725.19;;;31.96;47.74
38786;BME280;24535;45.508;12.252;2023-06-22T10:50:59;101725.63;;;31.93;47.33
38786;BME280;24535;45.508;12.252;2023-06-22T10:53:25;101728.56;;;31.91;47.65
38786;BME280;24535;45.508;12.252;2023-06-22T10:55:50;101718.28;;;31.93;47.90
38786;BME280;24535;45.508;12.252;2023-06-22T10:58:17;101712.22;;;31.91;47.47
38786;BME280;24535;45.508;12.252;2023-06-22T11:00:42;101710.53;;;31.90;47.21
38786;BME280;24535;45.508;12.252;2023-06-22T11:03:08;101724.19;;;31.90;47.03
38786;BME280;24535;45.508;12.252;2023-06-22T11:05:33;101720.63;;;31.90;47.57
38786;BME280;24535;45.508;12.252;2023-06-22T11:07:58;101711.22;;;31.86;47.25
38786;BME280;24535;45.508;12.252;2023-06-22T11:10:24;101708.88;;;31.83;47.08
38786;BME280;24535;45.508;12.252;2023-06-22T11:12:49;101716.88;;;31.84;47.33
38786;BME280;24535;45.508;12.252;2023-06-22T11:15:14;101706.81;;;31.85;47.14
38786;BME280;24535;45.508;12.252;2023-06-22T11:17:40;101702.38;;;31.84;46.70
38786;BME280;24535;45.508;12.252;2023-06-22T11:20:05;101703.22;;;31.84;47.65
38786;BME280;24535;45.508;12.252;2023-06-22T11:22:38;101707.66;;;31.85;47.59
38786;BME280;24535;45.508;12.252;2023-06-22T11:25:04;101708.06;;;31.82;47.05
38786;BME280;24535;45.508;12.252;2023-06-22T11:27:30;101706.41;;;31.81;47.13
38786;BME280;24535;45.508;12.252;2023-06-22T11:29:55;101703.28;;;31.77;47.52
38786;BME280;24535;45.508;12.252;2023-06-22T11:32:20;101701.81;;;31.75;46.86
38786;BME280;24535;45.508;12.252;2023-06-22T11:34:48;101693.47;;;31.70;46.89
38786;BME280;24535;45.508;12.252;2023-06-22T11:37:13;101686.78;;;31.66;46.99
38786;BME280;24535;45.508;12.252;2023-06-22T11:39:38;101683.41;;;31.64;46.92
38786;BME280;24535;45.508;12.252;2023-06-22T11:42:04;101678.44;;;31.61;46.75
38786;BME280;24535;45.508;12.252;2023-06-22T11:44:29;101678.63;;;31.59;46.84
38786;BME280;24535;45.508;12.252;2023-06-22T11:49:57;101666.31;;;31.57;46.69
38786;BME280;24535;45.508;12.252;2023-06-22T11:52:23;101661.69;;;31.57;48.02
38786;BME280;24535;45.508;12.252;2023-06-22T11:54:48;101660.84;;;31.57;46.61
38786;BME280;24535;45.508;12.252;2023-06-22T11:57:14;101654.56;;;31.56;45.67
38786;BME280;24535;45.508;12.252;2023-06-22T11:59:45;101659.78;;;31.58;46.31
38786;BME280;24535;45.508;12.252;2023-06-22T12:02:10;101650.78;;;31.57;46.30
38786;BME280;24535;45.508;12.252;2023-06-22T12:04:36;101650.78;;;31.57;45.95
38786;BME280;24535;45.508;12.252;2023-06-22T12:07:07;101643.22;;;31.59;47.42
38786;BME280;24535;45.508;12.252;2023-06-22T12:09:36;101644.91;;;31.60;45.55
38786;BME280;24535;45.508;12.252;2023-06-22T12:17:59;101629.38;;;31.61;45.57
38786;BME280;24535;45.508;12.252;2023-06-22T12:20:26;101629.81;;;31.58;45.66
38786;BME280;24535;45.508;12.252;2023-06-22T12:22:58;101635.50;;;31.56;45.79
38786;BME280;24535;45.508;12.252;2023-06-22T12:25:23;101631.91;;;31.56;46.12
38786;BME280;24535;45.508;12.252;2023-06-22T12:30:23;101629.19;;;31.56;45.87
38786;BME280;24535;45.508;12.252;2023-06-22T12:32:58;101618.75;;;31.52;46.08
38786;BME280;24535;45.508;12.252;2023-06-22T12:35:23;101616.22;;;31.51;46.01
38786;BME280;24535;45.508;12.252;2023-06-22T12:37:49;101617.53;;;31.48;45.99
38786;BME280;24535;45.508;12.252;2023-06-22T12:42:58;101605.81;;;31.48;46.20
38786;BME280;24535;45.508;12.252;2023-06-22T12:45:30;101613.97;;;31.48;45.68
38786;BME280;24535;45.508;12.252;2023-06-22T12:47:58;101612.28;;;31.47;46.15
38786;BME280;24535;45.508;12.252;2023-06-22T12:50:24;101611.25;;;31.48;46.81
38786;BME280;24535;45.508;12.252;2023-06-22T12:52:49;101597.63;;;31.48;45.68
38786;BME280;24535;45.508;12.252;2023-06-22T12:58:22;101588.78;;;31.52;45.20
38786;BME280;24535;45.508;12.252;2023-06-22T13:00:47;101590.00;;;31.57;44.25
38786;BME280;24535;45.508;12.252;2023-06-22T13:03:12;101596.47;;;31.62;45.22
38786;BME280;24535;45.508;12.252;2023-06-22T13:05:38;101590.56;;;31.65;45.44
38786;BME280;24535;45.508;12.252;2023-06-22T13:08:03;101578.38;;;31.68;44.87
38786;BME280;24535;45.508;12.252;2023-06-22T13:10:29;101581.50;;;31.71;45.35
38786;BME280;24535;45.508;12.252;2023-06-22T13:12:54;101583.19;;;31.72;45.89
38786;BME280;24535;45.508;12.252;2023-06-22T13:15:25;101589.47;;;31.73;44.47
38786;BME280;24535;45.508;12.252;2023-06-22T13:17:50;101582.31;;;31.72;44.61
38786;BME280;24535;45.508;12.252;2023-06-22T13:20:16;101574.81;;;31.67;45.15
38786;BME280;24535;45.508;12.252;2023-06-22T13:22:41;101572.31;;;31.66;44.41
38786;BME280;24535;45.508;12.252;2023-06-22T13:25:08;101572.75;;;31.63;44.81
38786;BME280;24535;45.508;12.252;2023-06-22T13:27:37;101578.22;;;31.63;44.60
38786;BME280;24535;45.508;12.252;2023-06-22T13:30:02;101590.78;;;31.64;44.47
38786;BME280;24535;45.508;12.252;2023-06-22T13:32:28;101596.47;;;31.62;45.36
38786;BME280;24535;45.508;12.252;2023-06-22T13:34:53;101583.66;;;31.63;45.37
38786;BME280;24535;45.508;12.252;2023-06-22T13:37:18;101585.56;;;31.62;45.64
38786;BME280;24535;45.508;12.252;2023-06-22T13:39:44;101575.94;;;31.60;45.44
38786;BME280;24535;45.508;12.252;2023-06-22T13:42:09;101584.09;;;31.60;45.20
38786;BME280;24535;45.508;12.252;2023-06-22T13:44:35;101564.19;;;31.59;45.54
38786;BME280;24535;45.508;12.252;2023-06-22T13:47:00;101563.59;;;31.57;45.38
38786;BME280;24535;45.508;12.252;2023-06-22T13:49:25;101570.13;;;31.56;45.20
38786;BME280;24535;45.508;12.252;2023-06-22T13:51:51;101565.69;;;31.55;45.49
38786;BME280;24535;45.508;12.252;2023-06-22T13:54:16;101554.19;;;31.53;44.92
38786;BME280;24535;45.508;12.252;2023-06-22T13:56:41;101547.91;;;31.52;44.13
38786;BME280;24535;45.508;12.252;2023-06-22T13:59:07;101547.69;;;31.54;45.46
38786;BME280;24535;45.508;12.252;2023-06-22T14:01:34;101547.44;;;31.56;45.41
38786;BME280;24535;45.508;12.252;2023-06-22T14:03:59;101551.88;;;31.57;45.83
38786;BME280;24535;45.508;12.252;2023-06-22T14:06:26;101554.38;;;31.58;44.92
38786;BME280;24535;45.508;12.252;2023-06-22T14:08:52;101553.53;;;31.58;45.04
38786;BME280;24535;45.508;12.252;2023-06-22T14:11:17;101558.16;;;31.57;45.57
38786;BME280;24535;45.508;12.252;2023-06-22T14:13:42;101549.34;;;31.55;45.53
38786;BME280;24535;45.508;12.252;2023-06-22T14:16:08;101553.97;;;31.55;45.70
38786;BME280;24535;45.508;12.252;2023-06-22T14:18:33;101548.75;;;31.53;45.54
38786;BME280;24535;45.508;12.252;2023-06-22T14:20:58;101551.47;;;31.53;45.70
38786;BME280;24535;45.508;12.252;2023-06-22T14:23:24;101558.81;;;31.52;45.56